Wilbur, Kentucky
Current Conditions -  °F | °C
As of 8:35 PM on Thursday 27 Nov 2014 (Local Time) from KSJS Reporting Station
Light Snow Light Snow  
Wind Chill: 26°   Ceiling: 2000
Heat Index: 31°   Visibility: 10mi
Dew Point: 24°   Wind: 5mph
Humidity: 77%   Direction: 300°WNW
Pressure: 30.35"   Gusts: NA
Location:  38.0348°N, 82.8583°W
Report Text: KSJS 280135Z AUTO 30004KT 10SM -SN OVC020 M01/M04 A3035 RMK AO2 T10071042
Loading
Personal Weather Stations






























Interactive Weather Map New forecast layout! Learn more

10-Day Weather Forecast

Advertisements
Track Severe Weather on mobile